Time;durP1;ratioP1;P1;durP2;ratioP2;P2;SDS_P1;SDS_P2;PMS_P1;PMS_P2;Temp;Humidity;BMP_temperature;BMP_pressure;BME280_temperature;BME280_humidity;BME280_pressure;Samples;Min_cycle;Max_cycle;Signal;HPM_P1;HPM_P2
2022/01/31 00:02:15;;;;;;;13.70;12.32;;;22.70;63.10;;;;;;6090098;28;84441;-66
2022/01/31 00:05:18;;;;;;;13.73;12.40;;;22.70;63.10;;;;;;6089546;28;84941;-66
2022/01/31 00:08:24;;;;;;;13.93;12.52;;;22.70;63.20;;;;;;6090346;28;84023;-66
2022/01/31 00:11:26;;;;;;;13.70;12.30;;;22.70;63.20;;;;;;6079494;28;84006;-66
2022/01/31 00:14:38;;;;;;;13.45;12.05;;;22.60;63.20;;;;;;6090673;28;84075;-66
2022/01/31 00:17:40;;;;;;;13.48;12.13;;;22.60;63.20;;;;;;6078474;28;84073;-66
2022/01/31 00:20:42;;;;;;;14.07;12.57;;;22.60;63.30;;;;;;6086253;28;82960;-66
2022/01/31 00:23:46;;;;;;;13.93;12.52;;;22.60;63.30;;;;;;6090992;28;84884;-66
2022/01/31 00:26:48;;;;;;;13.70;12.30;;;22.60;63.40;;;;;;6083575;28;82672;-66
2022/01/31 00:29:50;;;;;;;13.50;12.20;;;22.60;63.50;;;;;;6070327;28;84038;-66
2022/01/31 00:32:52;;;;;;;13.18;11.88;;;22.60;63.40;;;;;;6090053;28;85936;-66
2022/01/31 00:35:54;;;;;;;13.15;11.85;;;22.60;63.30;;;;;;6090495;28;85425;-66
2022/01/31 00:38:57;;;;;;;13.40;12.00;;;22.60;63.40;;;;;;6088397;28;84065;-66
2022/01/31 00:41:59;;;;;;;12.98;11.70;;;22.50;63.30;;;;;;6090798;28;83976;-66
2022/01/31 00:45:10;;;;;;;12.63;11.43;;;22.50;63.30;;;;;;6078121;28;84081;-66
2022/01/31 00:48:18;;;;;;;12.95;11.65;;;22.50;63.40;;;;;;6077970;28;84516;-65
2022/01/31 00:51:20;;;;;;;12.93;11.55;;;22.50;63.40;;;;;;6087878;28;83067;-66
2022/01/31 00:54:23;;;;;;;12.80;11.45;;;22.50;63.50;;;;;;6080869;28;84189;-66
2022/01/31 00:57:26;;;;;;;12.18;10.93;;;22.50;63.50;;;;;;6076737;28;83606;-66
2022/01/31 01:00:28;;;;;;;12.48;11.27;;;22.50;63.50;;;;;;6085014;28;84180;-66
2022/01/31 01:03:30;;;;;;;12.85;11.55;;;22.40;63.50;;;;;;6084830;28;84750;-65
2022/01/31 01:06:32;;;;;;;12.23;11.10;;;22.40;63.50;;;;;;6079469;28;83997;-66
2022/01/31 01:09:37;;;;;;;12.13;10.93;;;22.40;63.50;;;;;;6090042;28;84027;-66
2022/01/31 01:12:39;;;;;;;11.48;10.38;;;22.40;63.60;;;;;;6100922;28;83779;-66
2022/01/31 01:15:41;;;;;;;12.13;10.93;;;22.40;63.70;;;;;;6087286;28;84373;-66
2022/01/31 01:18:43;;;;;;;11.63;10.45;;;22.40;63.70;;;;;;6087596;28;84074;-65
2022/01/31 01:21:45;;;;;;;12.20;10.50;;;22.40;63.70;;;;;;6090094;28;84088;-66
2022/01/31 01:24:49;;;;;;;11.13;9.93;;;22.30;63.70;;;;;;6076591;28;82981;-66
2022/01/31 01:27:53;;;;;;;11.27;10.18;;;22.30;63.70;;;;;;6089297;28;83257;-65
2022/01/31 01:30:56;;;;;;;11.35;10.15;;;22.30;64.60;;;;;;6085729;28;83084;-66
2022/01/31 01:33:58;;;;;;;10.68;9.63;;;22.30;63.70;;;;;;6086096;28;83799;-66
2022/01/31 01:37:01;;;;;;;10.70;9.60;;;22.30;63.70;;;;;;6087710;28;83946;-66
2022/01/31 01:40:05;;;;;;;10.70;9.70;;;22.30;63.70;;;;;;6097853;28;83926;-66
2022/01/31 01:43:08;;;;;;;10.40;9.30;;;22.20;63.70;;;;;;6071116;28;84169;-66
2022/01/31 01:46:10;;;;;;;10.80;9.70;;;22.30;63.70;;;;;;6082611;28;83043;-66
2022/01/31 01:49:12;;;;;;;10.52;9.48;;;22.20;63.70;;;;;;6087822;28;84024;-66
2022/01/31 01:52:15;;;;;;;10.93;9.82;;;22.20;63.70;;;;;;6089095;28;84065;-66
2022/01/31 01:55:18;;;;;;;10.20;9.20;;;22.30;63.70;;;;;;6065210;28;83807;-65
2022/01/31 01:58:21;;;;;;;10.35;9.35;;;22.20;63.70;;;;;;6089027;28;82198;-66
2022/01/31 02:01:23;;;;;;;10.10;9.10;;;22.20;63.80;;;;;;6090104;28;84080;-66
2022/01/31 02:04:27;;;;;;;10.23;9.13;;;22.20;63.80;;;;;;6093466;28;82936;-66
2022/01/31 02:07:47;;;;;;;9.82;8.82;;;22.10;63.80;;;;;;6092909;28;85011;-66
2022/01/31 02:10:51;;;;;;;9.38;8.40;;;22.10;63.80;;;;;;6088717;28;84142;-66
2022/01/31 02:13:53;;;;;;;9.55;8.65;;;22.10;63.90;;;;;;6086948;28;82866;-66
2022/01/31 02:16:55;;;;;;;9.30;8.40;;;22.10;63.90;;;;;;6086791;28;83978;-66
2022/01/31 02:19:57;;;;;;;9.25;8.35;;;22.10;63.90;;;;;;6082049;28;84041;-66
2022/01/31 02:23:02;;;;;;;9.05;8.15;;;22.10;63.80;;;;;;6088312;28;84095;-66
2022/01/31 02:26:06;;;;;;;9.43;8.48;;;22.10;63.80;;;;;;6087722;28;83968;-66
2022/01/31 02:29:11;;;;;;;8.60;7.80;;;22.10;63.90;;;;;;6076430;28;83363;-66
2022/01/31 02:32:15;;;;;;;8.55;7.75;;;22.10;63.80;;;;;;6074639;28;84467;-66
2022/01/31 02:35:17;;;;;;;8.55;7.72;;;22.00;63.90;;;;;;6075873;28;84114;-65
2022/01/31 02:38:21;;;;;;;9.07;8.18;;;22.00;63.90;;;;;;6090856;28;84978;-66
2022/01/31 02:41:23;;;;;;;8.75;7.95;;;22.00;63.90;;;;;;6090425;28;84326;-65
2022/01/31 02:44:25;;;;;;;8.27;7.47;;;22.00;63.90;;;;;;6088590;28;84063;-66
2022/01/31 02:47:31;;;;;;;8.52;7.63;;;22.00;63.90;;;;;;6088023;28;83745;-66
2022/01/31 02:50:33;;;;;;;8.05;7.25;;;22.00;64.00;;;;;;6086712;28;84458;-66
2022/01/31 02:53:40;;;;;;;8.43;7.53;;;22.00;64.00;;;;;;6088461;28;84067;-66
2022/01/31 02:56:42;;;;;;;7.95;7.15;;;21.90;64.00;;;;;;6081720;28;83991;-65
2022/01/31 02:59:45;;;;;;;8.43;7.50;;;21.90;64.00;;;;;;6084729;28;83336;-66
2022/01/31 03:02:47;;;;;;;7.63;6.93;;;21.90;64.00;;;;;;6086725;28;84048;-66
2022/01/31 03:05:49;;;;;;;8.05;7.25;;;21.90;64.00;;;;;;6084876;28;84485;-66
2022/01/31 03:08:52;;;;;;;7.60;6.80;;;21.90;64.00;;;;;;6080603;28;85016;-66
2022/01/31 03:11:54;;;;;;;7.68;6.88;;;21.90;64.00;;;;;;6082081;28;84116;-66
2022/01/31 03:14:56;;;;;;;7.65;6.93;;;21.90;64.00;;;;;;6076456;28;84096;-66
2022/01/31 03:17:59;;;;;;;7.15;6.45;;;21.90;64.10;;;;;;6087308;28;83914;-66
2022/01/31 03:21:01;;;;;;;7.45;6.75;;;21.90;64.00;;;;;;6088656;28;84165;-66
2022/01/31 03:24:05;;;;;;;7.10;6.40;;;21.90;63.90;;;;;;6081699;28;84139;-65
2022/01/31 03:27:07;;;;;;;7.07;6.38;;;21.90;64.00;;;;;;6088127;28;84103;-66
2022/01/31 03:30:14;;;;;;;7.35;6.65;;;21.90;64.00;;;;;;6086933;28;83275;-66
2022/01/31 03:33:16;;;;;;;6.97;6.28;;;21.90;64.00;;;;;;6085850;28;84260;-66
2022/01/31 03:36:18;;;;;;;7.20;6.50;;;21.80;64.00;;;;;;6087607;28;84281;-66
2022/01/31 03:39:22;;;;;;;6.85;6.15;;;21.80;64.00;;;;;;6093592;28;84907;-66
2022/01/31 03:42:24;;;;;;;6.80;6.10;;;21.80;64.10;;;;;;6090380;28;84282;-66
2022/01/31 03:45:31;;;;;;;6.40;5.80;;;21.80;64.20;;;;;;6091792;28;82935;-66
2022/01/31 03:48:34;;;;;;;7.18;5.95;;;21.80;64.10;;;;;;6068711;28;84134;-66
2022/01/31 03:51:36;;;;;;;6.63;5.90;;;21.80;64.10;;;;;;6088415;28;84101;-66
2022/01/31 03:54:40;;;;;;;6.30;5.70;;;21.80;64.10;;;;;;6089927;28;83218;-66
2022/01/31 03:57:42;;;;;;;6.60;5.90;;;21.80;64.20;;;;;;6091076;28;84158;-66
2022/01/31 04:00:45;;;;;;;6.53;5.80;;;21.80;64.20;;;;;;6077882;28;83325;-66
2022/01/31 04:03:47;;;;;;;6.50;5.68;;;21.80;64.10;;;;;;6090811;28;84080;-66
2022/01/31 04:06:49;;;;;;;6.25;5.65;;;21.80;64.40;;;;;;6090379;28;84289;-66
2022/01/31 04:09:53;;;;;;;6.10;5.50;;;21.80;64.00;;;;;;6090062;28;84997;-66
2022/01/31 04:12:55;;;;;;;5.93;5.38;;;21.80;63.90;;;;;;6085757;28;83823;-66
2022/01/31 04:15:57;;;;;;;6.07;5.50;;;21.80;63.80;;;;;;6089859;28;82951;-66
2022/01/31 04:18:59;;;;;;;6.03;5.43;;;21.80;63.90;;;;;;6089191;28;84405;-66
2022/01/31 04:22:01;;;;;;;5.90;5.30;;;21.90;63.90;;;;;;6088667;28;84001;-66
2022/01/31 04:25:12;;;;;;;6.28;5.68;;;21.90;63.80;;;;;;6088835;28;84427;-66
2022/01/31 04:28:19;;;;;;;6.13;5.53;;;21.90;63.80;;;;;;6081577;28;84007;-65
2022/01/31 04:31:37;;;;;;;6.65;5.90;;;21.90;63.70;;;;;;6066247;28;83292;-66
2022/01/31 04:34:40;;;;;;;6.68;5.97;;;21.90;63.60;;;;;;6066664;28;84098;-65
2022/01/31 04:37:42;;;;;;;7.15;6.45;;;21.90;63.50;;;;;;6079490;28;84112;-66
2022/01/31 04:40:46;;;;;;;7.20;6.50;;;21.90;63.50;;;;;;6087259;28;85214;-66
2022/01/31 04:43:50;;;;;;;7.80;7.10;;;22.00;63.50;;;;;;6091177;28;84124;-65
2022/01/31 04:46:52;;;;;;;7.50;6.80;;;22.00;63.40;;;;;;6081173;28;83816;-66
2022/01/31 04:49:54;;;;;;;7.78;6.97;;;22.10;63.50;;;;;;6066844;28;82979;-66
2022/01/31 04:52:56;;;;;;;7.80;7.07;;;22.10;63.40;;;;;;6080752;28;82962;-66
2022/01/31 04:55:59;;;;;;;8.88;7.72;;;22.10;63.30;;;;;;6079954;28;83988;-66
2022/01/31 04:59:01;;;;;;;8.60;7.80;;;22.10;63.20;;;;;;6077557;28;84070;-66
2022/01/31 05:02:03;;;;;;;9.13;8.18;;;22.10;63.10;;;;;;6067991;28;83318;-66
2022/01/31 05:05:06;;;;;;;9.02;8.13;;;22.20;63.00;;;;;;6065755;28;84161;-66
2022/01/31 05:08:09;;;;;;;9.68;8.45;;;22.20;63.00;;;;;;6091111;28;84069;-66
2022/01/31 05:11:13;;;;;;;9.05;8.13;;;22.30;63.00;;;;;;6080959;28;84200;-66
2022/01/31 05:14:16;;;;;;;9.45;8.48;;;22.30;63.00;;;;;;6087673;28;82610;-66
2022/01/31 05:17:18;;;;;;;9.50;8.55;;;22.30;62.90;;;;;;6091076;28;84107;-65
2022/01/31 05:20:20;;;;;;;9.63;8.63;;;22.30;62.80;;;;;;6088559;28;84222;-66
2022/01/31 05:23:22;;;;;;;9.52;8.63;;;22.40;62.80;;;;;;6090541;28;84199;-66
2022/01/31 05:26:25;;;;;;;10.48;9.38;;;22.40;62.80;;;;;;6089837;28;84030;-66
2022/01/31 05:29:27;;;;;;;10.30;9.27;;;22.40;62.80;;;;;;6069517;28;84179;-66
2022/01/31 05:32:29;;;;;;;9.85;8.93;;;22.40;62.80;;;;;;6074569;28;83437;-66
2022/01/31 05:35:32;;;;;;;10.10;9.10;;;22.40;62.70;;;;;;6069179;28;84143;-66
2022/01/31 05:38:37;;;;;;;10.13;9.13;;;22.40;62.70;;;;;;6084709;28;82957;-66
2022/01/31 05:41:41;;;;;;;10.57;9.57;;;22.40;62.70;;;;;;6073287;28;85435;-66
2022/01/31 05:44:46;;;;;;;10.73;9.60;;;22.40;62.70;;;;;;6080092;28;84170;-66
2022/01/31 05:47:49;;;;;;;10.02;9.02;;;22.50;62.80;;;;;;6076057;28;83867;-67
2022/01/31 05:50:51;;;;;;;10.10;9.10;;;22.40;63.70;;;;;;6084767;28;84033;-66
2022/01/31 05:53:53;;;;;;;10.52;9.18;;;22.50;65.20;;;;;;6076970;28;84102;-67
2022/01/31 05:56:56;;;;;;;10.57;9.48;;;22.50;65.10;;;;;;6073064;28;84006;-66
2022/01/31 05:59:58;;;;;;;11.82;10.63;;;22.60;63.70;;;;;;6080573;28;84100;-66
2022/01/31 06:03:19;;;;;;;12.25;11.05;;;22.70;64.40;;;;;;6069457;28;83573;-63
2022/01/31 06:06:21;;;;;;;11.50;10.30;;;22.70;64.20;;;;;;6064271;28;84477;-65
2022/01/31 06:09:26;;;;;;;11.48;10.27;;;22.80;63.30;;;;;;6072825;28;83654;-65
2022/01/31 06:12:30;;;;;;;10.95;9.85;;;22.80;63.30;;;;;;6078872;28;85225;-66
2022/01/31 06:15:32;;;;;;;10.82;9.73;;;22.80;63.20;;;;;;6082015;28;84069;-66
2022/01/31 06:18:36;;;;;;;10.82;9.75;;;22.80;63.20;;;;;;6078377;28;84116;-67
2022/01/31 06:21:38;;;;;;;11.05;9.95;;;22.80;63.10;;;;;;6079920;28;82925;-66
2022/01/31 06:24:41;;;;;;;10.70;9.63;;;22.90;63.10;;;;;;6085015;28;84370;-67
2022/01/31 06:27:44;;;;;;;10.95;9.85;;;22.80;62.80;;;;;;6089752;28;84211;-65
2022/01/31 06:30:46;;;;;;;10.48;9.18;;;22.90;62.80;;;;;;6087727;28;84721;-65
2022/01/31 06:33:48;;;;;;;9.98;8.98;;;22.90;62.80;;;;;;6086392;28;83513;-66
2022/01/31 06:36:50;;;;;;;11.90;9.80;;;22.80;62.70;;;;;;6083321;28;84366;-65
2022/01/31 06:39:52;;;;;;;10.43;9.15;;;22.80;62.70;;;;;;6089146;28;84359;-66
2022/01/31 06:42:56;;;;;;;10.15;9.15;;;22.90;62.70;;;;;;6074455;28;85047;-66
2022/01/31 06:45:58;;;;;;;10.13;9.07;;;22.80;62.70;;;;;;6064044;28;84293;-67
2022/01/31 06:49:00;;;;;;;10.27;9.02;;;22.80;62.60;;;;;;6077581;28;84049;-66
2022/01/31 06:52:02;;;;;;;10.60;9.50;;;22.80;62.60;;;;;;6076030;28;84032;-66
2022/01/31 06:55:06;;;;;;;10.27;9.18;;;22.90;62.60;;;;;;6074719;28;84054;-66
2022/01/31 06:58:10;;;;;;;9.70;8.70;;;22.80;62.50;;;;;;6075236;28;84200;-66
2022/01/31 07:01:12;;;;;;;10.15;8.95;;;22.90;62.50;;;;;;6090047;28;84170;-66
2022/01/31 07:04:14;;;;;;;9.98;8.98;;;22.90;62.60;;;;;;6089315;28;83335;-66
2022/01/31 07:07:16;;;;;;;10.10;8.95;;;22.80;62.50;;;;;;6082733;28;83992;-66
2022/01/31 07:10:18;;;;;;;9.02;8.13;;;22.90;62.50;;;;;;6077951;28;84047;-66
2022/01/31 07:13:35;;;;;;;9.05;8.10;;;22.90;62.50;;;;;;6089600;28;85051;-66
2022/01/31 07:16:38;;;;;;;9.30;8.40;;;22.90;62.50;;;;;;6077426;28;81933;-66
2022/01/31 07:19:41;;;;;;;9.95;8.88;;;22.90;63.30;;;;;;6080219;28;82935;-65
2022/01/31 07:22:50;;;;;;;9.23;8.32;;;22.90;62.40;;;;;;6079848;28;83928;-66
2022/01/31 07:25:52;;;;;;;8.73;7.82;;;22.90;62.40;;;;;;6091554;28;84288;-66
2022/01/31 07:28:55;;;;;;;9.35;8.45;;;22.90;62.30;;;;;;6074592;28;84016;-66
2022/01/31 07:31:58;;;;;;;8.90;7.82;;;22.90;62.30;;;;;;6083814;28;84442;-66
2022/01/31 07:35:00;;;;;;;10.10;8.60;;;22.90;62.30;;;;;;6089795;28;83353;-66
2022/01/31 07:38:02;;;;;;;9.40;8.32;;;23.00;62.40;;;;;;6076464;28;82951;-66
2022/01/31 07:41:04;;;;;;;8.45;7.55;;;22.90;62.30;;;;;;6084807;28;84027;-67
2022/01/31 07:44:08;;;;;;;8.80;7.93;;;22.90;62.30;;;;;;6077248;28;86097;-66
2022/01/31 07:47:10;;;;;;;8.65;7.78;;;23.00;62.30;;;;;;6092432;28;84376;-66
2022/01/31 07:50:13;;;;;;;8.15;7.35;;;23.00;62.30;;;;;;6089494;28;84054;-66
2022/01/31 07:53:15;;;;;;;8.80;7.90;;;23.00;61.50;;;;;;6085086;28;83679;-66
2022/01/31 07:56:18;;;;;;;8.25;7.15;;;23.00;61.90;;;;;;6089626;28;82922;-66
2022/01/31 07:59:21;;;;;;;8.32;7.40;;;23.00;62.00;;;;;;6092220;28;83062;-66
2022/01/31 08:02:23;;;;;;;8.27;7.47;;;23.00;62.10;;;;;;6091702;28;84143;-66
2022/01/31 08:05:25;;;;;;;8.00;7.13;;;23.00;62.10;;;;;;6091426;28;83528;-66
2022/01/31 08:08:29;;;;;;;8.48;7.68;;;23.00;62.10;;;;;;6091873;28;84159;-66
2022/01/31 08:11:33;;;;;;;8.23;7.20;;;23.00;62.10;;;;;;6078042;28;84021;-66
2022/01/31 08:14:37;;;;;;;7.90;7.15;;;23.00;62.20;;;;;;6089401;28;85112;-66
2022/01/31 08:17:39;;;;;;;8.02;6.90;;;23.00;62.20;;;;;;6090202;28;84428;-66
2022/01/31 08:20:41;;;;;;;8.25;7.28;;;23.00;62.20;;;;;;6091583;28;83969;-66
2022/01/31 08:23:43;;;;;;;6.90;6.20;;;23.00;62.20;;;;;;6086828;28;84284;-66
2022/01/31 08:26:45;;;;;;;7.60;6.80;;;23.00;62.20;;;;;;6080335;28;84227;-66
2022/01/31 08:29:49;;;;;;;7.90;7.10;;;23.00;62.20;;;;;;6091628;28;84029;-66
2022/01/31 08:33:00;;;;;;;7.50;6.72;;;23.00;62.20;;;;;;6079030;28;84043;-66
2022/01/31 08:36:03;;;;;;;7.15;6.30;;;23.00;62.20;;;;;;6089988;28;82928;-66
2022/01/31 08:39:08;;;;;;;6.93;6.18;;;23.00;62.20;;;;;;6083038;28;84565;-66
2022/01/31 08:42:10;;;;;;;6.80;6.10;;;23.00;62.20;;;;;;6067984;28;82919;-66
2022/01/31 08:45:14;;;;;;;6.60;5.97;;;23.10;62.30;;;;;;6078376;28;85517;-66
2022/01/31 08:48:16;;;;;;;7.63;6.30;;;23.00;62.20;;;;;;6066819;28;84093;-66
2022/01/31 08:51:18;;;;;;;7.65;6.32;;;23.00;62.20;;;;;;6072550;28;84477;-66
2022/01/31 08:54:20;;;;;;;6.28;5.65;;;23.00;62.20;;;;;;6090228;28;84272;-66
2022/01/31 08:57:22;;;;;;;6.55;5.85;;;23.00;62.20;;;;;;6090923;28;82820;-66
2022/01/31 09:00:33;;;;;;;6.20;5.60;;;23.00;62.30;;;;;;6078313;28;84068;-66
2022/01/31 09:03:55;;;;;;;7.60;6.03;;;23.00;62.30;;;;;;6066093;28;84431;-66
2022/01/31 09:06:57;;;;;;;6.50;5.90;;;23.00;62.30;;;;;;6080283;28;83310;-66
2022/01/31 09:10:00;;;;;;;6.93;5.78;;;23.00;62.30;;;;;;6075669;28;84077;-66
2022/01/31 09:13:03;;;;;;;6.82;5.53;;;22.90;62.30;;;;;;6083711;28;84380;-66
2022/01/31 09:16:08;;;;;;;5.72;5.13;;;22.90;62.50;;;;;;6087975;28;85004;-66
2022/01/31 09:19:10;;;;;;;7.03;5.32;;;22.90;62.50;;;;;;6088834;28;84079;-67
2022/01/31 09:22:12;;;;;;;7.03;5.57;;;22.90;62.50;;;;;;6074213;28;83015;-66
2022/01/31 09:25:15;;;;;;;7.32;5.75;;;22.80;62.60;;;;;;6078243;28;84131;-66
2022/01/31 09:28:18;;;;;;;10.10;5.45;;;22.80;62.70;;;;;;6088498;28;83945;-65
2022/01/31 09:31:23;;;;;;;9.52;5.05;;;22.80;62.70;;;;;;6075478;28;84049;-66
2022/01/31 09:34:25;;;;;;;7.78;5.28;;;22.70;62.80;;;;;;6089678;28;84066;-65
2022/01/31 09:37:28;;;;;;;5.95;5.15;;;22.70;62.80;;;;;;6089635;28;83663;-65
2022/01/31 09:40:30;;;;;;;8.60;5.20;;;22.70;63.00;;;;;;6088404;28;84146;-66
2022/01/31 09:47:18;;;;;;;7.78;5.00;;;22.60;63.00;;;;;;6090084;28;84673;-65
2022/01/31 09:50:20;;;;;;;6.55;5.05;;;22.60;63.00;;;;;;6079383;28;84482;-65
2022/01/31 09:53:22;;;;;;;9.18;5.22;;;22.60;63.20;;;;;;6085580;28;84078;-65
2022/01/31 09:56:26;;;;;;;8.52;5.03;;;22.60;63.20;;;;;;6088515;28;84052;-65
2022/01/31 09:59:28;;;;;;;6.30;5.00;;;22.50;63.20;;;;;;6086811;28;83361;-66
2022/01/31 10:02:32;;;;;;;6.63;5.10;;;22.60;63.20;;;;;;6080598;28;84099;-65
2022/01/31 10:05:34;;;;;;;8.52;5.20;;;22.50;63.20;;;;;;6083978;28;84064;-65
2022/01/31 10:08:37;;;;;;;6.32;4.72;;;22.50;63.20;;;;;;6090131;28;83345;-65
2022/01/31 10:11:46;;;;;;;6.65;5.00;;;22.50;63.20;;;;;;6087981;28;84049;-66
2022/01/31 10:18:28;;;;;;;6.55;4.72;;;22.50;63.20;;;;;;6065088;28;83147;-66
2022/01/31 10:21:30;;;;;;;6.80;4.85;;;22.50;63.30;;;;;;6074476;28;84082;-65
2022/01/31 10:24:35;;;;;;;7.00;4.80;;;22.50;63.40;;;;;;6087450;28;84144;-65
2022/01/31 10:27:39;;;;;;;7.55;4.93;;;22.50;64.70;;;;;;6088083;28;84091;-65
2022/01/31 10:30:43;;;;;;;9.02;4.45;;;22.50;64.70;;;;;;6076326;28;84047;-67
2022/01/31 10:34:20;;;;;;;10.77;4.38;;;22.50;64.80;;;;;;6070977;28;84065;-66
2022/01/31 10:37:24;;;;;;;6.65;4.35;;;22.50;65.00;;;;;;6072151;28;83981;-66
2022/01/31 10:51:04;;;;;;;9.20;4.50;;;22.60;64.40;;;;;;6083177;28;83350;-67
2022/01/31 10:54:11;;;;;;;5.60;4.25;;;22.60;64.40;;;;;;6088133;28;83224;-66
2022/01/31 10:57:16;;;;;;;8.35;4.00;;;22.70;64.60;;;;;;6071885;28;84041;-66
2022/01/31 11:00:19;;;;;;;8.70;4.20;;;22.70;64.70;;;;;;6091941;28;84084;-66
2022/01/31 11:03:32;;;;;;;9.77;4.53;;;22.70;65.20;;;;;;6091327;28;84065;-66
2022/01/31 11:06:36;;;;;;;6.80;4.10;;;22.70;65.70;;;;;;6090339;28;84070;-66
2022/01/31 11:09:40;;;;;;;10.75;4.40;;;22.70;66.00;;;;;;6092733;28;84061;-66
2022/01/31 11:13:00;;;;;;;8.95;4.47;;;22.70;66.10;;;;;;6081615;28;83724;-66
2022/01/31 11:16:04;;;;;;;8.93;4.38;;;22.80;66.20;;;;;;6070605;28;83981;-66
2022/01/31 11:19:09;;;;;;;10.88;4.50;;;22.80;66.20;;;;;;6080168;28;82842;-67
2022/01/31 11:22:15;;;;;;;13.38;4.30;;;22.80;66.20;;;;;;6088965;28;84100;-66
2022/01/31 11:25:20;;;;;;;8.60;4.10;;;22.80;66.20;;;;;;6091313;28;84411;-66
2022/01/31 11:28:24;;;;;;;9.75;4.45;;;22.80;66.20;;;;;;6091114;28;84179;-66
2022/01/31 11:31:27;;;;;;;8.90;4.22;;;22.90;66.20;;;;;;6080960;28;84113;-66
2022/01/31 11:34:29;;;;;;;7.35;3.78;;;22.80;66.20;;;;;;6078851;28;84110;-66
2022/01/31 11:37:32;;;;;;;6.13;3.60;;;22.90;66.20;;;;;;6091577;28;84008;-65
2022/01/31 11:40:35;;;;;;;7.07;4.07;;;22.90;66.20;;;;;;6091253;28;84108;-66
2022/01/31 11:43:37;;;;;;;7.30;3.88;;;22.90;66.10;;;;;;6079928;28;83389;-66
2022/01/31 11:46:41;;;;;;;8.07;3.97;;;22.90;66.00;;;;;;6089598;28;84061;-66
2022/01/31 11:49:45;;;;;;;9.30;3.90;;;22.90;65.90;;;;;;6090001;28;84064;-66
2022/01/31 11:52:50;;;;;;;6.90;3.50;;;22.90;65.90;;;;;;6090249;28;85003;-66
2022/01/31 11:55:52;;;;;;;8.75;4.03;;;22.90;65.80;;;;;;6073675;28;84081;-66
2022/01/31 11:58:55;;;;;;;6.60;3.67;;;22.90;65.70;;;;;;6077810;28;84372;-66
2022/01/31 12:01:59;;;;;;;6.38;3.92;;;22.90;65.70;;;;;;6077263;28;84073;-66
2022/01/31 12:05:04;;;;;;;6.47;3.65;;;23.00;65.70;;;;;;6091188;28;84099;-66
2022/01/31 12:08:11;;;;;;;5.70;3.50;;;22.90;65.50;;;;;;6090141;28;82937;-66
2022/01/31 12:11:17;;;;;;;5.22;3.20;;;23.00;65.50;;;;;;6091414;28;84072;-66
2022/01/31 12:14:25;;;;;;;6.50;3.40;;;23.00;65.40;;;;;;6090662;28;83145;-66
2022/01/31 12:17:56;;;;;;;7.53;3.50;;;23.00;65.40;;;;;;6078700;28;84086;-66
2022/01/31 12:24:40;;;;;;;6.32;3.17;;;23.00;65.20;;;;;;6086212;28;83267;-67
2022/01/31 12:27:42;;;;;;;4.38;3.00;;;23.00;65.10;;;;;;6090801;28;84019;-66
2022/01/31 12:30:44;;;;;;;4.38;3.20;;;23.00;65.00;;;;;;6081834;28;84142;-68
2022/01/31 12:33:46;;;;;;;5.47;3.03;;;23.10;65.40;;;;;;6079347;28;84513;-66
2022/01/31 12:36:50;;;;;;;5.93;2.90;;;23.10;65.40;;;;;;6080176;28;84240;-68
2022/01/31 12:40:03;;;;;;;19.83;13.90;;;23.10;65.50;;;;;;6081064;28;84109;-65
2022/01/31 12:43:13;;;;;;;273.90;186.82;;;23.10;65.70;;;;;;6086756;28;84517;-66
2022/01/31 12:46:18;;;;;;;726.90;487.38;;;23.10;67.90;;;;;;6086686;28;86324;-67
2022/01/31 12:49:20;;;;;;;1338.72;881.33;;;23.10;72.00;;;;;;6071781;28;86718;-68
2022/01/31 12:52:34;;;;;;;1084.18;810.20;;;23.10;73.50;;;;;;6085403;28;85239;-66
2022/01/31 12:55:39;;;;;;;1081.30;584.42;;;23.10;70.70;;;;;;6087676;28;85275;-66
2022/01/31 12:58:43;;;;;;;915.55;688.35;;;23.10;76.40;;;;;;6087489;28;85708;-67
2022/01/31 13:01:47;;;;;;;388.95;281.75;;;23.10;72.40;;;;;;6084817;28;85277;-67
2022/01/31 13:04:49;;;;;;;235.68;150.73;;;23.20;68.30;;;;;;6080871;28;85408;-67
2022/01/31 13:07:52;;;;;;;215.95;143.27;;;23.30;66.60;;;;;;6085697;28;86062;-67
2022/01/31 13:10:56;;;;;;;210.68;133.15;;;23.40;65.90;;;;;;6076674;28;85212;-66
2022/01/31 13:14:07;;;;;;;163.77;112.90;;;23.40;65.60;;;;;;6087652;28;85419;-66
2022/01/31 13:17:13;;;;;;;56.45;38.50;;;23.40;65.00;;;;;;6085795;28;85292;-64
2022/01/31 13:20:15;;;;;;;23.83;18.77;;;23.30;58.60;;;;;;6077844;28;84083;-65
2022/01/31 13:23:17;;;;;;;7.78;6.20;;;23.10;55.00;;;;;;6086320;28;84093;-65
2022/01/31 13:26:21;;;;;;;6.07;4.40;;;22.80;54.10;;;;;;6087748;28;85194;-66
2022/01/31 13:29:44;;;;;;;4.18;3.30;;;22.70;54.10;;;;;;6089187;28;84057;-65
2022/01/31 13:32:47;;;;;;;4.43;3.50;;;22.70;55.60;;;;;;6088629;28;84077;-66
2022/01/31 13:35:50;;;;;;;3.55;2.80;;;22.70;56.00;;;;;;6089376;28;82843;-65
2022/01/31 13:38:52;;;;;;;3.72;2.97;;;22.70;55.90;;;;;;6089096;28;83989;-66
2022/01/31 13:41:55;;;;;;;4.03;2.55;;;22.70;55.70;;;;;;6087692;28;83820;-65
2022/01/31 13:44:59;;;;;;;2.63;2.15;;;22.70;55.40;;;;;;6090347;28;84201;-66
2022/01/31 13:48:04;;;;;;;1.92;1.60;;;22.80;55.30;;;;;;6088602;28;83268;-65
2022/01/31 13:51:12;;;;;;;2.25;1.80;;;22.80;55.00;;;;;;6090173;28;84294;-65
2022/01/31 13:54:15;;;;;;;1.95;1.60;;;22.90;55.00;;;;;;6088000;28;83222;-65
2022/01/31 13:57:20;;;;;;;1.88;1.48;;;22.90;55.00;;;;;;6075894;28;85345;-65
2022/01/31 14:00:23;;;;;;;2.55;1.63;;;22.90;55.60;;;;;;6087366;28;84021;-65
2022/01/31 14:03:27;;;;;;;2.53;1.60;;;22.90;55.90;;;;;;6079785;28;83158;-65
2022/01/31 14:06:32;;;;;;;1.55;1.45;;;22.90;56.20;;;;;;6077088;28;84067;-65
2022/01/31 14:09:35;;;;;;;2.65;1.60;;;22.90;56.50;;;;;;6087805;28;84191;-65
2022/01/31 14:12:40;;;;;;;1.90;1.70;;;23.00;56.80;;;;;;6088252;28;84232;-65
2022/01/31 14:15:46;;;;;;;2.63;1.63;;;23.00;57.10;;;;;;6089710;28;83738;-65
2022/01/31 14:18:50;;;;;;;1.70;1.38;;;23.00;57.30;;;;;;6089868;28;83367;-65
2022/01/31 14:21:55;;;;;;;2.05;1.58;;;23.00;57.50;;;;;;6087437;28;83994;-65
2022/01/31 14:24:57;;;;;;;2.28;1.58;;;23.00;57.60;;;;;;6077182;28;84160;-65
2022/01/31 14:28:01;;;;;;;1.88;1.67;;;23.00;57.80;;;;;;6087603;28;85160;-65
2022/01/31 14:31:03;;;;;;;1.75;1.48;;;23.00;58.00;;;;;;6087375;28;84027;-65
2022/01/31 14:34:07;;;;;;;1.70;1.50;;;23.00;58.20;;;;;;6089769;28;84232;-65
2022/01/31 14:37:09;;;;;;;2.45;1.58;;;23.00;58.30;;;;;;6067794;28;84055;-65
2022/01/31 14:40:25;;;;;;;1.88;1.45;;;23.00;58.50;;;;;;6083219;28;82706;-65
2022/01/31 14:50:10;;;;;;;1.98;1.48;;;23.00;58.90;;;;;;6089796;28;83449;-65
2022/01/31 14:53:13;;;;;;;1.95;1.50;;;23.00;59.00;;;;;;6087471;28;84000;-65
2022/01/31 14:56:15;;;;;;;1.83;1.52;;;23.00;59.00;;;;;;6068532;28;84104;-65
2022/01/31 14:59:18;;;;;;;1.92;1.40;;;23.00;59.10;;;;;;6067102;28;85095;-65
2022/01/31 15:02:20;;;;;;;1.40;1.30;;;23.00;59.20;;;;;;6079980;28;85654;-64
2022/01/31 15:05:23;;;;;;;2.10;1.63;;;23.00;59.30;;;;;;6077304;28;82966;-65
2022/01/31 15:08:25;;;;;;;2.35;1.52;;;23.00;59.60;;;;;;6081567;28;83231;-67
2022/01/31 15:11:27;;;;;;;2.08;1.70;;;23.00;59.80;;;;;;6078363;28;82895;-64
2022/01/31 15:14:30;;;;;;;2.63;1.90;;;23.00;60.10;;;;;;6085233;28;84172;-65
2022/01/31 15:17:33;;;;;;;1.42;1.30;;;23.00;60.30;;;;;;6075734;28;84065;-64
2022/01/31 15:20:36;;;;;;;2.20;1.70;;;23.00;60.40;;;;;;6063331;28;83358;-64
2022/01/31 15:23:41;;;;;;;2.60;1.63;;;23.00;60.50;;;;;;6078893;28;84470;-64
2022/01/31 15:26:43;;;;;;;2.17;1.50;;;23.00;60.60;;;;;;6084278;28;84105;-65
2022/01/31 15:29:47;;;;;;;1.92;1.60;;;23.00;60.80;;;;;;6069830;28;85848;-64
2022/01/31 15:32:49;;;;;;;2.17;1.38;;;23.00;60.80;;;;;;6081009;28;83040;-65
2022/01/31 15:35:54;;;;;;;2.28;1.50;;;23.00;61.00;;;;;;6071853;28;84593;-64
2022/01/31 15:38:56;;;;;;;2.00;1.45;;;23.00;61.00;;;;;;6072312;28;84379;-65
2022/01/31 15:42:02;;;;;;;3.03;1.45;;;23.00;61.00;;;;;;6070051;28;84429;-64
2022/01/31 15:45:07;;;;;;;2.00;1.30;;;23.00;61.10;;;;;;6061114;28;84028;-64
2022/01/31 15:48:09;;;;;;;1.63;1.40;;;23.00;61.10;;;;;;6072195;28;84109;-65
2022/01/31 15:51:11;;;;;;;1.45;1.33;;;23.00;61.30;;;;;;6064791;28;83551;-65
2022/01/31 15:54:14;;;;;;;1.42;1.33;;;23.00;61.30;;;;;;6069132;28;84123;-64
2022/01/31 15:57:20;;;;;;;1.65;1.35;;;23.00;61.50;;;;;;6076783;28;84055;-64
2022/01/31 16:00:23;;;;;;;1.80;1.50;;;23.00;61.50;;;;;;6071335;28;85439;-64
2022/01/31 16:03:25;;;;;;;1.85;1.40;;;23.00;61.60;;;;;;6078144;28;82981;-64
2022/01/31 16:06:27;;;;;;;1.73;1.60;;;23.00;61.60;;;;;;6081729;28;84076;-64
2022/01/31 16:09:29;;;;;;;1.75;1.50;;;23.00;61.60;;;;;;6068316;28;84090;-64
2022/01/31 16:12:32;;;;;;;1.52;1.42;;;23.00;61.70;;;;;;6070587;28;84098;-64
2022/01/31 16:15:36;;;;;;;1.63;1.50;;;23.00;61.80;;;;;;6065701;28;83930;-64
2022/01/31 16:18:39;;;;;;;1.52;1.30;;;23.00;61.80;;;;;;6067284;28;84350;-64